createdAt,value
2023-05-07T00:00:27.639Z,83.70
2023-05-07T00:03:30.657Z,83.88
2023-05-07T00:06:34.540Z,84.09
2023-05-07T00:09:38.887Z,84.20
2023-05-07T00:12:42.750Z,84.51
2023-05-07T00:15:45.539Z,84.44
2023-05-07T00:18:48.188Z,84.21
2023-05-07T00:21:50.903Z,84.17
2023-05-07T00:24:55.523Z,83.97
2023-05-07T00:27:58.533Z,83.79
2023-05-07T00:31:01.276Z,83.86
2023-05-07T00:34:03.998Z,83.79
2023-05-07T00:37:08.322Z,83.33
2023-05-07T00:40:13.100Z,83.61
2023-05-07T00:43:16.109Z,83.38
2023-05-07T00:46:19.094Z,83.54
2023-05-07T00:49:22.287Z,84.40
2023-05-07T00:52:28.362Z,83.97
2023-05-07T00:55:32.682Z,83.75
2023-05-07T00:58:35.529Z,83.59
2023-05-07T01:01:38.574Z,83.98
2023-05-07T01:04:41.520Z,83.96
2023-05-07T01:07:45.406Z,83.96
2023-05-07T01:10:49.543Z,83.76
2023-05-07T01:13:53.284Z,84.11
2023-05-07T01:16:56.166Z,83.85
2023-05-07T01:19:58.941Z,84.10
2023-05-07T01:23:05.122Z,84.19
2023-05-07T01:26:07.788Z,84.24
2023-05-07T01:29:10.865Z,84.14
2023-05-07T01:32:15.721Z,84.44
2023-05-07T01:35:21.777Z,84.28
2023-05-07T01:38:26.142Z,84.50
2023-05-07T01:41:29.153Z,84.57
2023-05-07T01:44:32.072Z,84.93
2023-05-07T01:47:35.599Z,85.11
2023-05-07T01:50:39.255Z,85.39
2023-05-07T01:53:44.865Z,85.22
2023-05-07T01:56:49.085Z,85.71
2023-05-07T01:59:51.830Z,85.79
2023-05-07T02:02:54.827Z,86.25
2023-05-07T02:05:57.675Z,86.73
2023-05-07T02:09:01.723Z,86.68
2023-05-07T02:12:04.883Z,86.81
2023-05-07T02:15:08.616Z,86.66
2023-05-07T02:18:11.311Z,86.62
2023-05-07T02:21:13.986Z,86.67
2023-05-07T02:24:18.084Z,86.79
2023-05-07T02:27:22.850Z,86.29
2023-05-07T02:30:26.174Z,86.18
2023-05-07T02:33:28.876Z,85.87
2023-05-07T02:36:31.634Z,85.18
2023-05-07T02:39:35.945Z,84.65
2023-05-07T02:42:38.661Z,84.57
2023-05-07T02:45:41.417Z,84.43
2023-05-07T02:48:44.083Z,84.31
2023-05-07T02:51:46.743Z,84.32
2023-05-07T02:54:50.808Z,84.32
2023-05-07T02:57:53.492Z,84.66
2023-05-07T03:00:56.742Z,84.03
2023-05-07T03:03:59.628Z,83.89
2023-05-07T03:07:02.316Z,84.03
2023-05-07T03:10:07.297Z,84.04
2023-05-07T03:13:10.228Z,83.78
2023-05-07T03:16:13.267Z,84.43
2023-05-07T03:19:16.084Z,84.25
2023-05-07T03:22:18.841Z,84.15
2023-05-07T03:25:23.105Z,84.52
2023-05-07T03:28:25.893Z,84.66
2023-05-07T03:31:28.756Z,85.08
2023-05-07T03:34:31.499Z,85.14
2023-05-07T03:37:34.193Z,85.20
2023-05-07T03:40:38.300Z,84.99
2023-05-07T03:43:41.054Z,85.29
2023-05-07T03:46:43.945Z,84.39
2023-05-07T03:49:46.655Z,85.15
2023-05-07T03:52:51.582Z,84.73
2023-05-07T03:55:55.765Z,84.57
2023-05-07T03:58:58.614Z,84.49
2023-05-07T04:02:03.701Z,84.63
2023-05-07T04:05:08.899Z,84.75
2023-05-07T04:08:11.622Z,85.03
2023-05-07T04:11:15.722Z,84.96
2023-05-07T04:14:18.425Z,85.36
2023-05-07T04:17:21.130Z,85.68
2023-05-07T04:20:23.914Z,86.23
2023-05-07T04:23:26.631Z,86.80
2023-05-07T04:26:31.127Z,86.70
2023-05-07T04:29:33.874Z,86.97
2023-05-07T04:32:37.505Z,86.70
2023-05-07T04:35:40.281Z,86.82
2023-05-07T04:38:43.373Z,86.58
2023-05-07T04:41:47.501Z,87.11
2023-05-07T04:44:54.956Z,87.44
2023-05-07T04:47:57.801Z,87.83
2023-05-07T04:51:00.697Z,88.03
2023-05-07T04:54:03.510Z,88.32
2023-05-07T04:57:07.768Z,89.10
2023-05-07T05:00:11.370Z,89.25
2023-05-07T05:03:14.539Z,89.39
2023-05-07T05:06:17.380Z,89.72
2023-05-07T05:09:20.141Z,90.00
2023-05-07T05:12:24.207Z,89.53
2023-05-07T05:15:26.850Z,89.59
2023-05-07T05:18:29.544Z,90.02
2023-05-07T05:21:34.183Z,89.95
2023-05-07T05:24:36.858Z,89.91
2023-05-07T05:27:44.426Z,90.49
2023-05-07T05:30:49.953Z,90.96
2023-05-07T05:33:52.595Z,91.40
2023-05-07T05:36:55.357Z,91.42
2023-05-07T05:39:58.013Z,91.32
2023-05-07T05:43:02.229Z,91.09
2023-05-07T05:46:05.420Z,90.51
2023-05-07T05:49:08.306Z,89.54
2023-05-07T05:52:11.683Z,88.08
2023-05-07T05:55:14.432Z,86.60
2023-05-07T05:58:18.500Z,86.68
2023-05-07T06:01:21.416Z,86.83
2023-05-07T06:04:24.129Z,87.09
2023-05-07T06:07:27.135Z,87.13
2023-05-07T06:10:31.166Z,86.46
2023-05-07T06:13:35.190Z,85.88
2023-05-07T06:16:39.107Z,84.17
2023-05-07T06:19:41.876Z,83.68
2023-05-07T06:22:44.541Z,81.97
2023-05-07T06:25:50.912Z,82.19
2023-05-07T06:28:55.201Z,82.56
2023-05-07T06:31:58.117Z,82.14
2023-05-07T06:35:00.952Z,80.29
2023-05-07T06:38:03.838Z,80.06
2023-05-07T06:41:08.029Z,79.37
2023-05-07T06:44:12.149Z,79.18
2023-05-07T06:47:16.334Z,77.28
2023-05-07T06:50:19.347Z,76.57
2023-05-07T06:53:22.057Z,75.17
2023-05-07T06:56:25.433Z,71.88
2023-05-07T06:59:29.637Z,72.00
2023-05-07T07:02:32.569Z,72.57
2023-05-07T07:05:35.582Z,71.25
2023-05-07T07:08:39.755Z,68.16
2023-05-07T07:11:42.709Z,67.97
2023-05-07T07:14:46.897Z,66.99
2023-05-07T07:17:50.742Z,65.99
2023-05-07T07:20:53.491Z,67.75
2023-05-07T07:23:56.376Z,66.92
2023-05-07T07:26:59.062Z,66.51
2023-05-07T07:30:03.223Z,66.47
2023-05-07T07:33:06.390Z,66.49
2023-05-07T07:36:09.596Z,65.56
2023-05-07T07:39:12.299Z,64.85
2023-05-07T07:42:15.180Z,65.05
2023-05-07T07:45:19.492Z,63.09
2023-05-07T07:48:22.346Z,64.22
2023-05-07T07:51:25.064Z,64.19
2023-05-07T07:54:27.796Z,64.60
2023-05-07T07:57:30.589Z,66.13
2023-05-07T08:00:34.730Z,66.99
2023-05-07T08:03:40.101Z,65.41
2023-05-07T08:06:43.176Z,66.01
2023-05-07T08:09:45.967Z,65.74
2023-05-07T08:12:49.352Z,65.49
2023-05-07T08:15:53.467Z,66.17
2023-05-07T08:18:56.201Z,67.05
2023-05-07T08:22:01.227Z,65.49
2023-05-07T08:25:04.290Z,65.42
2023-05-07T08:28:09.678Z,65.75
2023-05-07T08:31:14.100Z,64.49
2023-05-07T08:34:17.001Z,65.92
2023-05-07T08:37:19.805Z,67.02
2023-05-07T08:40:26.903Z,67.54
2023-05-07T08:43:29.911Z,64.70
2023-05-07T08:46:34.446Z,63.75
2023-05-07T08:49:37.271Z,62.64
2023-05-07T08:52:41.556Z,63.33
2023-05-07T08:55:44.345Z,61.76
2023-05-07T08:58:47.118Z,58.79
2023-05-07T09:01:51.450Z,58.79
2023-05-07T09:04:54.513Z,57.21
2023-05-07T09:07:58.415Z,56.65
2023-05-07T09:11:01.399Z,56.36
2023-05-07T09:14:04.883Z,54.29
2023-05-07T09:17:09.107Z,58.44
2023-05-07T09:20:12.250Z,55.26
2023-05-07T09:23:16.122Z,53.12
2023-05-07T09:26:18.937Z,53.30
2023-05-07T09:29:21.770Z,52.23
2023-05-07T09:32:28.286Z,55.13
2023-05-07T09:35:32.240Z,53.24
2023-05-07T09:38:35.871Z,51.05
2023-05-07T09:41:46.194Z,52.52
2023-05-07T09:44:49.253Z,53.30
2023-05-07T09:47:57.026Z,52.52
2023-05-07T09:51:04.615Z,52.41
2023-05-07T09:54:09.804Z,51.70
2023-05-07T09:57:13.733Z,53.96
2023-05-07T10:00:17.385Z,51.64
2023-05-07T10:03:22.175Z,51.58
2023-05-07T10:06:27.332Z,52.87
2023-05-07T10:09:31.244Z,50.14
2023-05-07T10:12:39.763Z,49.30
2023-05-07T10:15:43.297Z,50.62
2023-05-07T10:18:49.448Z,50.08
2023-05-07T10:21:57.797Z,49.81
2023-05-07T10:25:05.403Z,47.04
2023-05-07T10:28:13.132Z,46.89
2023-05-07T10:31:33.118Z,48.63
2023-05-07T10:34:41.074Z,49.64
2023-05-07T10:37:44.111Z,47.36
2023-05-07T10:40:47.798Z,49.94
2023-05-07T10:43:50.965Z,49.13
2023-05-07T10:47:09.774Z,51.38
2023-05-07T10:50:26.492Z,50.91
2023-05-07T10:53:29.774Z,49.48
2023-05-07T10:56:32.745Z,50.61
2023-05-07T10:59:45.798Z,50.57
2023-05-07T11:03:09.669Z,52.40
2023-05-07T11:06:15.712Z,51.21
2023-05-07T11:09:18.601Z,51.36
2023-05-07T11:12:49.221Z,53.56
2023-05-07T11:15:53.090Z,55.26
2023-05-07T11:18:57.963Z,55.96
2023-05-07T11:22:02.114Z,55.70
2023-05-07T11:25:06.801Z,56.33
2023-05-07T11:28:11.404Z,56.87
2023-05-07T11:31:14.314Z,61.86
2023-05-07T11:34:22.618Z,60.32
2023-05-07T11:37:30.554Z,57.40
2023-05-07T11:40:33.339Z,58.31
2023-05-07T11:43:37.601Z,58.52
2023-05-07T11:46:45.555Z,58.46
2023-05-07T11:49:49.641Z,59.45
2023-05-07T11:52:54.183Z,59.44
2023-05-07T11:55:58.316Z,60.10
2023-05-07T11:59:01.051Z,61.29
2023-05-07T12:02:04.050Z,59.43
2023-05-07T12:05:07.253Z,59.64
2023-05-07T12:08:16.614Z,60.42
2023-05-07T12:11:26.906Z,61.95
2023-05-07T12:14:30.135Z,62.44
2023-05-07T12:17:33.074Z,64.61
2023-05-07T12:20:36.346Z,64.82
2023-05-07T12:23:40.904Z,63.40
2023-05-07T12:26:43.687Z,59.40
2023-05-07T12:29:47.364Z,60.21
2023-05-07T12:32:54.729Z,61.50
2023-05-07T12:35:58.313Z,62.51
2023-05-07T12:39:03.044Z,62.99
2023-05-07T12:42:05.841Z,63.91
2023-05-07T12:45:12.472Z,64.75
2023-05-07T12:48:15.516Z,65.47
2023-05-07T12:51:20.631Z,67.71
2023-05-07T12:54:42.614Z,67.62
2023-05-07T12:57:48.014Z,67.28
2023-05-07T13:00:52.147Z,62.90
2023-05-07T13:03:54.993Z,64.74
2023-05-07T13:06:57.791Z,65.02
2023-05-07T13:10:01.896Z,65.93
2023-05-07T13:13:05.445Z,66.88
2023-05-07T13:16:10.742Z,67.37
2023-05-07T13:19:13.546Z,68.22
2023-05-07T13:22:16.299Z,69.68
2023-05-07T13:25:20.352Z,72.75
2023-05-07T13:28:23.453Z,72.94
2023-05-07T13:31:26.426Z,73.58
2023-05-07T13:34:30.548Z,74.71
2023-05-07T13:37:33.273Z,76.04
2023-05-07T13:40:37.439Z,78.31
2023-05-07T13:43:41.011Z,79.01
2023-05-07T13:46:43.817Z,81.48
2023-05-07T13:49:46.511Z,80.65
2023-05-07T13:52:51.859Z,80.49
2023-05-07T13:55:56.037Z,80.76
2023-05-07T13:59:00.787Z,79.58
2023-05-07T14:02:03.918Z,79.04
2023-05-07T14:05:07.493Z,78.51
2023-05-07T14:08:10.367Z,78.24
2023-05-07T14:11:14.378Z,80.33
2023-05-07T14:14:17.174Z,78.80
2023-05-07T14:17:21.063Z,78.07
2023-05-07T14:20:23.998Z,79.19
2023-05-07T14:23:28.153Z,78.86
2023-05-07T14:26:32.309Z,77.95
2023-05-07T14:29:36.428Z,79.50
2023-05-07T14:32:39.349Z,80.39
2023-05-07T14:35:42.207Z,79.99
2023-05-07T14:38:45.109Z,79.92
2023-05-07T14:41:49.299Z,80.23
2023-05-07T14:44:52.058Z,81.07
2023-05-07T14:47:54.939Z,83.08
2023-05-07T14:50:58.024Z,82.46
2023-05-07T14:54:01.325Z,83.54
2023-05-07T14:57:07.118Z,84.79
2023-05-07T15:00:12.300Z,85.13
2023-05-07T15:03:15.409Z,85.57
2023-05-07T15:06:18.223Z,85.20
2023-05-07T15:09:21.077Z,84.91
2023-05-07T15:12:25.133Z,87.29
2023-05-07T15:15:27.845Z,88.24
2023-05-07T15:18:30.614Z,87.41
2023-05-07T15:21:35.539Z,88.02
2023-05-07T15:24:38.521Z,89.10
2023-05-07T15:27:42.665Z,89.02
2023-05-07T15:30:45.464Z,89.31
2023-05-07T15:33:48.529Z,89.31
2023-05-07T15:36:51.191Z,89.21
2023-05-07T15:39:53.879Z,89.35
2023-05-07T15:42:58.328Z,89.71
2023-05-07T15:46:01.824Z,89.98
2023-05-07T15:49:05.449Z,90.67
2023-05-07T15:52:08.290Z,91.21
2023-05-07T15:55:11.571Z,91.42
2023-05-07T15:58:15.904Z,91.89
2023-05-07T16:01:18.771Z,92.08
2023-05-07T16:04:21.607Z,91.67
2023-05-07T16:07:24.684Z,91.54
2023-05-07T16:10:27.789Z,91.30
2023-05-07T16:13:31.808Z,91.35
2023-05-07T16:16:34.738Z,91.55
2023-05-07T16:19:37.490Z,90.77
2023-05-07T16:22:40.259Z,90.89
2023-05-07T16:25:43.117Z,91.48
2023-05-07T16:28:47.294Z,90.90
2023-05-07T16:31:50.685Z,91.41
2023-05-07T16:34:53.427Z,91.59
2023-05-07T16:37:56.319Z,91.99
2023-05-07T16:40:58.973Z,91.81
2023-05-07T16:44:03.940Z,92.99
2023-05-07T16:47:06.656Z,93.16
2023-05-07T16:50:10.304Z,92.95
2023-05-07T16:53:13.074Z,92.82
2023-05-07T16:56:17.132Z,92.93
2023-05-07T16:59:21.256Z,93.28
2023-05-07T17:02:24.052Z,92.44
2023-05-07T17:05:27.441Z,92.39
2023-05-07T17:08:30.277Z,92.19
2023-05-07T17:11:34.093Z,92.77
2023-05-07T17:14:38.365Z,92.86
2023-05-07T17:17:41.841Z,92.12
2023-05-07T17:20:44.556Z,91.75
2023-05-07T17:23:47.223Z,91.60
2023-05-07T17:26:50.175Z,90.61
2023-05-07T17:29:55.568Z,90.58
2023-05-07T17:33:06.174Z,91.51
2023-05-07T17:36:12.246Z,91.83
2023-05-07T17:39:14.983Z,92.05
2023-05-07T17:42:17.752Z,92.29
2023-05-07T17:45:22.039Z,92.94
2023-05-07T17:48:25.225Z,92.67
2023-05-07T17:51:36.106Z,92.71
2023-05-07T17:54:41.881Z,92.16
2023-05-07T17:57:44.627Z,92.58
2023-05-07T18:00:49.067Z,92.96
2023-05-07T18:03:52.083Z,93.14
2023-05-07T18:06:55.051Z,93.23
2023-05-07T18:09:59.646Z,93.06
2023-05-07T18:13:02.487Z,92.88
2023-05-07T18:16:07.496Z,93.27
2023-05-07T18:19:10.419Z,93.26
2023-05-07T18:22:13.115Z,93.29
2023-05-07T18:25:15.805Z,93.00
2023-05-07T18:28:18.598Z,92.97
2023-05-07T18:31:22.747Z,93.02
2023-05-07T18:34:25.540Z,92.40
2023-05-07T18:37:28.220Z,92.13
2023-05-07T18:40:31.028Z,91.94
2023-05-07T18:43:34.502Z,92.92
2023-05-07T18:46:38.659Z,92.19
2023-05-07T18:49:41.372Z,92.16
2023-05-07T18:52:44.165Z,92.51
2023-05-07T18:55:50.789Z,92.79
2023-05-07T18:58:53.446Z,93.32
2023-05-07T19:01:57.553Z,93.31
2023-05-07T19:05:00.269Z,93.88
2023-05-07T19:08:02.928Z,93.79
2023-05-07T19:11:05.654Z,94.30
2023-05-07T19:14:09.686Z,94.26
2023-05-07T19:17:15.976Z,94.59
2023-05-07T19:20:18.820Z,94.62
2023-05-07T19:23:21.575Z,94.82
2023-05-07T19:26:24.441Z,94.83
2023-05-07T19:29:27.234Z,94.96
2023-05-07T19:32:31.251Z,95.19
2023-05-07T19:35:35.242Z,95.12
2023-05-07T19:38:37.971Z,95.33
2023-05-07T19:41:41.920Z,95.59
2023-05-07T19:44:44.689Z,96.11
2023-05-07T19:47:49.946Z,96.38
2023-05-07T19:50:52.816Z,96.28
2023-05-07T19:53:55.562Z,96.54
2023-05-07T19:56:58.374Z,96.81
2023-05-07T20:00:01.061Z,97.15
2023-05-07T20:03:05.612Z,97.13
2023-05-07T20:06:08.383Z,97.11
2023-05-07T20:09:12.895Z,97.28
2023-05-07T20:12:15.765Z,97.20
2023-05-07T20:15:19.631Z,97.30
2023-05-07T20:18:23.846Z,97.59
2023-05-07T20:21:26.877Z,97.74
2023-05-07T20:24:29.803Z,98.05
2023-05-07T20:27:34.568Z,98.01
2023-05-07T20:30:37.350Z,98.43
2023-05-07T20:33:41.391Z,98.27
2023-05-07T20:36:45.291Z,98.38
2023-05-07T20:39:49.138Z,98.16
2023-05-07T20:42:52.749Z,98.12
2023-05-07T20:46:00.559Z,98.62
2023-05-07T20:49:04.917Z,98.94
2023-05-07T20:52:07.592Z,99.15
2023-05-07T20:55:10.990Z,99.67
2023-05-07T20:58:13.782Z,99.46
2023-05-07T21:01:16.610Z,98.94
2023-05-07T21:04:21.402Z,98.48
2023-05-07T21:07:24.237Z,98.48
2023-05-07T21:10:27.101Z,98.21
2023-05-07T21:13:29.848Z,97.84
2023-05-07T21:16:32.630Z,98.52
2023-05-07T21:19:36.730Z,98.57
2023-05-07T21:22:39.412Z,99.05
2023-05-07T21:25:42.434Z,98.92
2023-05-07T21:28:45.118Z,99.02
2023-05-07T21:31:47.981Z,99.39
2023-05-07T21:34:52.321Z,99.16
2023-05-07T21:37:55.123Z,99.72
2023-05-07T21:40:57.976Z,99.24
2023-05-07T21:44:00.777Z,99.26
2023-05-07T21:47:03.476Z,99.00
2023-05-07T21:50:08.509Z,99.27
2023-05-07T21:53:11.437Z,99.80
2023-05-07T21:56:14.153Z,99.53
2023-05-07T21:59:16.942Z,99.85
2023-05-07T22:02:19.684Z,99.36
2023-05-07T22:05:23.960Z,99.53
2023-05-07T22:08:26.670Z,99.80
2023-05-07T22:11:29.324Z,99.73
2023-05-07T22:14:32.161Z,100.00
2023-05-07T22:17:34.966Z,99.94
2023-05-07T22:20:39.088Z,99.86
2023-05-07T22:23:41.894Z,100.00
2023-05-07T22:26:45.109Z,100.00
2023-05-07T22:29:47.783Z,100.00
2023-05-07T22:32:50.481Z,100.00
2023-05-07T22:35:54.581Z,99.96
2023-05-07T22:38:57.235Z,99.81
2023-05-07T22:41:59.906Z,99.98
2023-05-07T22:45:02.735Z,100.00
2023-05-07T22:48:06.335Z,100.00
2023-05-07T22:51:15.023Z,100.00
2023-05-07T22:54:17.771Z,99.88
2023-05-07T22:57:20.478Z,99.89
2023-05-07T23:00:23.832Z,99.83
2023-05-07T23:03:26.833Z,100.00
2023-05-07T23:06:30.963Z,100.00
2023-05-07T23:09:33.967Z,100.00
2023-05-07T23:12:36.908Z,99.95
2023-05-07T23:15:39.890Z,100.00
2023-05-07T23:18:42.536Z,100.00
2023-05-07T23:21:46.586Z,100.00
2023-05-07T23:24:49.261Z,100.00
2023-05-07T23:27:51.956Z,100.00
2023-05-07T23:30:54.695Z,100.00
2023-05-07T23:33:57.536Z,100.00
2023-05-07T23:37:01.657Z,100.00
2023-05-07T23:40:05.062Z,100.00
2023-05-07T23:43:07.753Z,100.00
2023-05-07T23:46:10.473Z,100.00
2023-05-07T23:49:13.339Z,100.00
2023-05-07T23:52:17.560Z,100.00
2023-05-07T23:55:20.295Z,100.00
2023-05-07T23:58:23.162Z,100.00
